VABP/BHO METAR and TAF weather

Enter ICAO airport designator
Station Type Date Time Source
VABP METAR 2020/07/03 13:00 UTC NOAA

VABP 031300Z 05008KT 5000M HZ FEW010 SCT025 BKN100 FEW030CB 31/27 Q1002 NOSIG


Station Type Date Time Source
VABP Decoded METAR 2020/07/03 13:00 UTC NOAA

Bhopal / Bairagarh, India (VABP) 23-17N 077-21E 523M
Jul 03, 2020 - 09:00 AM EDT / 2020.07.03 1300 UTC
Wind: from the NE (050 degrees) at 9 MPH (8 KT):0
Sky conditions: mostly cloudy
Weather: haze; Cumulonimbus clouds observed
Temperature: 87 F (31 C)
Heat index: 102.4 F (39.1 C):1
Dew Point: 80 F (27 C)
Relative Humidity: 79%
Pressure (altimeter): 29.59 in. Hg (1002 hPa)
ob: VABP 031300Z 05008KT 5000M HZ FEW010 SCT025 BKN100 FEW030CB 31/27 Q1002 NOSIG
cycle: 13

Station Type Date Time Source
VABP TAF 2020/03/26 12:00 UTC NOAA

TAF VABP 261100Z 2612/2718 14005KT 6000 SCT030 BKN100
BECMG 2615/2617 22005KT FEW030 SCT100
BECMG 2618/2620 05005KT FEW030 BKN100
BECMG 2703/2705 12005KT FEW030 SCT100
BECMG 2706/2708 14005KT 6000 SCT030 BKN100
TEMPO 2611/2613 14010G20KT 3000 -RA/TSRA FEW030CB SCT030 BKN100

Example: see airport list